WetterOnline ( http://www.wetteronline.de )

Wetter aktuell Hamburg

Aktuelles Wetter: Hamburg/Fuhlsbüttel (15m)

6-stündlich | Neueste Meldungen
Ortszeit Temperatur Wetter
Mi, 23.01. 19:00 -5.3° C leicht bewölkt
Mi, 23.01. 13:00 -4.4° C bewölkt
Mi, 23.01. 7:00 -5.1° C bewölkt
Mi, 23.01. 1:00 -3.6° C leicht bewölkt
Di, 22.01. 19:00 -0.7° C leicht bewölkt
Di, 22.01. 13:00 -0.5° C leicht bewölkt
Di, 22.01. 7:00 -0.6° C bewölkt
Di, 22.01. 1:00 -0.6° C Nebel
Ortszeit Temperatur Wetter
Mi, 23.01. 23:30 -5.9° C -
Mi, 23.01. 23:20 -6° C bewölkt
Mi, 23.01. 23:10 -6.0° C -
Mi, 23.01. 23:00 -6.4° C leicht bewölkt
Mi, 23.01. 22:50 -6.4° C -
Mi, 23.01. 22:40 -6.6° C -
Mi, 23.01. 22:30 -7.2° C -
Mi, 23.01. 22:00 -6.3° C leicht bewölkt
Mi, 23.01. 21:30 -7.4° C -
Mi, 23.01. 21:00 -6.8° C leicht bewölkt
Mi, 23.01. 20:30 -6.9° C -
Mi, 23.01. 20:00 -6.6° C leicht bewölkt
Ortszeit Relative Feuchte Sichtweite
Mi, 23.01. 19:00 81% 6 km
Mi, 23.01. 13:00 79% 8 km
Mi, 23.01. 7:00 84% 6 km
Mi, 23.01. 1:00 80% 12 km
Di, 22.01. 19:00 62% 20 km
Di, 22.01. 13:00 66% 15 km
Di, 22.01. 7:00 86% 7 km
Di, 22.01. 1:00 97% 0.8 km
Ortszeit Relative Feuchte Sichtweite
Mi, 23.01. 23:30 84% 2.4 km
Mi, 23.01. 23:20 86% 3.7 km
Mi, 23.01. 23:10 84% -
Mi, 23.01. 23:00 84% 4.0 km
Mi, 23.01. 22:50 84% -
Mi, 23.01. 22:40 84% -
Mi, 23.01. 22:30 85% 2.7 km
Mi, 23.01. 22:00 84% 4.0 km
Mi, 23.01. 21:30 88% 2.6 km
Mi, 23.01. 21:00 89% 5.0 km
Mi, 23.01. 20:30 90% 2.7 km
Mi, 23.01. 20:00 88% 5.0 km
Ortszeit Niederschlagsmenge Niederschlagsart
Mi, 23.01. 19:00 0.0 l/m2 in 12 Std. -
Mi, 23.01. 13:00 0.0 l/m2 in 6 Std. -
Mi, 23.01. 7:00 0.0 l/m2 in 12 Std. -
Mi, 23.01. 1:00 0.0 l/m2 in 6 Std. -
Di, 22.01. 19:00 0.0 l/m2 in 12 Std. -
Di, 22.01. 13:00 0.0 l/m2 in 6 Std. -
Di, 22.01. 7:00 0.4 l/m2 in 12 Std. Schauer
Di, 22.01. 1:00 0.3 l/m2 in 6 Std. Schauer
Ortszeit Niederschlagsmenge Niederschlagsart
Mi, 23.01. 23:30 0.0 l/m2 in 1 Std. -
Mi, 23.01. 23:20 keine Meldung -
Mi, 23.01. 23:10 keine Meldung -
Mi, 23.01. 23:00 0.0 l/m2 in 1 Std. -
Mi, 23.01. 22:50 keine Meldung -
Mi, 23.01. 22:40 keine Meldung -
Mi, 23.01. 22:30 0.0 l/m2 in 1 Std. -
Mi, 23.01. 22:00 0.0 l/m2 in 1 Std. -
Mi, 23.01. 21:30 0.0 l/m2 in 1 Std. -
Mi, 23.01. 21:00 0.0 l/m2 in 1 Std. -
Mi, 23.01. 20:30 0.0 l/m2 in 1 Std. -
Mi, 23.01. 20:00 0.0 l/m2 in 1 Std. -
Ortszeit Stärke Spitze Richtung
km/h Bft. km/h Grad Sektor
Mi, 23.01. 19:00 6 1 26 70° O
Mi, 23.01. 13:00 14 3 29 120° SO
Mi, 23.01. 7:00 17 3 24 130° SO
Mi, 23.01. 1:00 18 3 32 140° SO
Di, 22.01. 19:00 22 4 39 150° SO
Di, 22.01. 13:00 24 4 33 150° SO
Di, 22.01. 7:00 11 2 25 170° S
Di, 22.01. 1:00 13 3 26 210° SW
Ortszeit Stärke Spitze Richtung
km/h Bft. km/h Grad Sektor
Mi, 23.01. 23:30 18 3 29 130° SO
Mi, 23.01. 23:20 17 3 - 130° SO
Mi, 23.01. 23:10 14 3 - 120° SO
Mi, 23.01. 23:00 11 2 15 110° O
Mi, 23.01. 22:50 11 2 - 110° O
Mi, 23.01. 22:40 7 2 - 100° O
Mi, 23.01. 22:30 7 2 11 90° O
Mi, 23.01. 22:00 7 2 25 90° O
Mi, 23.01. 21:30 7 2 9 80° O
Mi, 23.01. 21:00 4 1 14 30° NO
Mi, 23.01. 20:30 6 1 13 70° O
Mi, 23.01. 20:00 4 1 11 60° NO
Ortszeit Untergrenze Bedeckung Gattung
total tief tief mittel hoch
Mi, 23.01. 19:00 7800 m 2/8 0/8 - - Ci
Mi, 23.01. 13:00 330 m 7/8 7/8 Sc - -
Mi, 23.01. 7:00 270 m 7/8 7/8 St - -
Mi, 23.01. 1:00 7200 m 5/8 0/8 - - Ci
Di, 22.01. 19:00 4500 m 7/8 2/8 - Ac Cs
Di, 22.01. 13:00 6600 m 7/8 7/8 - - Cs
Di, 22.01. 7:00 270 m 7/8 7/8 St - -
Di, 22.01. 1:00 30 m 8/8 8/8 St - -
Ortszeit Bedeckungsgrad in Achtel und Wolkenuntergrenze
Mi, 23.01. 23:30 -
Mi, 23.01. 23:20 5-7(270m)
Mi, 23.01. 23:10 -
Mi, 23.01. 23:00 2(330m)
Mi, 23.01. 22:50 -
Mi, 23.01. 22:40 -
Mi, 23.01. 22:30 -
Mi, 23.01. 22:00 3(7500m)
Mi, 23.01. 21:30 -
Mi, 23.01. 21:00 3(7500m)
Mi, 23.01. 20:30 -
Mi, 23.01. 20:00 3(7800m)
Ortszeit Luftdruck NN (hPa) Tendenz (hPa in 3 Std.)
Mi, 23.01. 19:00 1006 + 1,8
Mi, 23.01. 13:00 1004 + 0,4
Mi, 23.01. 7:00 1003 + 0,4
Mi, 23.01. 1:00 1003 - 0,7
Di, 22.01. 19:00 1005 - 1,1
Di, 22.01. 13:00 1009 - 2,4
Di, 22.01. 7:00 1012 - 1,6
Di, 22.01. 1:00 1016 - 1,1
Ortszeit Luftdruck NN (hPa) Tendenz (hPa in 3 Std.)
Mi, 23.01. 23:30 1008 + 1,6
Mi, 23.01. 23:20 1008 keine Meldung
Mi, 23.01. 23:10 1008 keine Meldung
Mi, 23.01. 23:00 1008 + 1,6
Mi, 23.01. 22:50 1008 keine Meldung
Mi, 23.01. 22:40 1008 keine Meldung
Mi, 23.01. 22:30 1008 + 1,5
Mi, 23.01. 22:00 1008 + 1,4
Mi, 23.01. 21:30 1007 + 1,2
Mi, 23.01. 21:00 1007 + 1,4
Mi, 23.01. 20:30 1007 + 1,3
Mi, 23.01. 20:00 1007 + 1,6
Ortszeit Schneehöhe (cm)
Mi, 23.01. 19:00 3
Mi, 23.01. 13:00 3
Mi, 23.01. 7:00 3
Mi, 23.01. 1:00 3
Di, 22.01. 19:00 3
Di, 22.01. 13:00 3
Di, 22.01. 7:00 3
Di, 22.01. 1:00 3
Ortszeit Schneehöhe (cm)
Mi, 23.01. 23:30 -
Mi, 23.01. 23:20 -
Mi, 23.01. 23:10 -
Mi, 23.01. 23:00 -
Mi, 23.01. 22:50 -
Mi, 23.01. 22:40 -
Mi, 23.01. 22:30 -
Mi, 23.01. 22:00 -
Mi, 23.01. 21:30 -
Mi, 23.01. 21:00 -
Mi, 23.01. 20:30 -
Mi, 23.01. 20:00 -
Link zu dieser Seite / Seite empfehlen

Das Wetter in ...